createdAt,value
2022-12-11T00:01:34.650Z,34.00
2022-12-11T00:04:01.636Z,34.73
2022-12-11T00:06:28.623Z,39.47
2022-12-11T00:08:55.842Z,37.43
2022-12-11T00:11:23.312Z,35.97
2022-12-11T00:13:50.428Z,34.23
2022-12-11T00:16:18.771Z,36.80
2022-12-11T00:18:47.322Z,35.67
2022-12-11T00:21:15.545Z,34.80
2022-12-11T00:23:42.954Z,33.53
2022-12-11T00:26:12.461Z,34.70
2022-12-11T00:28:39.751Z,32.17
2022-12-11T00:31:08.215Z,32.40
2022-12-11T00:33:35.377Z,30.90
2022-12-11T00:36:02.589Z,35.23
2022-12-11T00:38:29.593Z,33.27
2022-12-11T00:41:00.191Z,32.03
2022-12-11T00:43:27.353Z,33.43
2022-12-11T00:45:54.400Z,32.05
2022-12-11T00:48:21.436Z,29.17
2022-12-11T00:50:48.452Z,30.23
2022-12-11T00:53:15.563Z,29.17
2022-12-11T00:55:43.834Z,30.10
2022-12-11T00:58:11.190Z,28.37
2022-12-11T01:00:38.492Z,31.33
2022-12-11T01:03:06.100Z,30.73
2022-12-11T01:05:33.144Z,31.20
2022-12-11T01:08:00.521Z,29.43
2022-12-11T01:10:27.878Z,28.17
2022-12-11T01:12:56.530Z,31.33
2022-12-11T01:15:24.540Z,30.83
2022-12-11T01:17:51.592Z,32.50
2022-12-11T01:20:19.155Z,30.27
2022-12-11T01:22:46.327Z,29.27
2022-12-11T01:25:13.857Z,29.17
2022-12-11T01:27:40.974Z,31.77
2022-12-11T01:30:08.474Z,29.47
2022-12-11T01:32:36.036Z,27.37
2022-12-11T01:35:06.680Z,26.37
2022-12-11T01:37:34.270Z,28.77
2022-12-11T01:40:01.862Z,23.93
2022-12-11T01:42:29.628Z,24.13
2022-12-11T01:45:15.800Z,25.90
2022-12-11T01:47:42.874Z,24.10
2022-12-11T01:50:09.904Z,26.93
2022-12-11T01:52:37.035Z,25.70
2022-12-11T01:55:04.196Z,26.07
2022-12-11T01:57:31.202Z,25.93
2022-12-11T01:59:58.238Z,25.50
2022-12-11T02:02:28.362Z,28.20
2022-12-11T02:04:55.369Z,25.57
2022-12-11T02:07:22.424Z,23.83
2022-12-11T02:09:49.438Z,24.03
2022-12-11T02:12:22.666Z,24.03
2022-12-11T02:15:08.562Z,24.47
2022-12-11T02:17:44.912Z,23.33
2022-12-11T02:20:11.866Z,22.40
2022-12-11T02:22:38.827Z,21.50
2022-12-11T02:25:13.906Z,22.77
2022-12-11T02:27:46.726Z,22.83
2022-12-11T02:30:15.000Z,24.20
2022-12-11T02:32:51.119Z,24.50
2022-12-11T02:35:20.877Z,24.97
2022-12-11T02:37:49.805Z,26.57
2022-12-11T02:40:20.058Z,24.20
2022-12-11T02:42:48.428Z,24.90
2022-12-11T02:45:15.472Z,24.13
2022-12-11T02:47:44.215Z,22.53
2022-12-11T02:50:14.430Z,21.90
2022-12-11T02:52:42.234Z,23.87
2022-12-11T02:55:11.842Z,25.33
2022-12-11T02:57:41.383Z,23.03
2022-12-11T03:00:09.350Z,23.50
2022-12-11T03:02:37.041Z,23.70
2022-12-11T03:05:04.462Z,21.43
2022-12-11T03:07:33.833Z,24.23
2022-12-11T03:10:01.113Z,24.50
2022-12-11T03:12:33.105Z,20.63
2022-12-11T03:15:01.577Z,23.30
2022-12-11T03:17:36.466Z,21.37
2022-12-11T03:20:08.711Z,22.70
2022-12-11T03:22:48.473Z,22.37
2022-12-11T03:25:21.697Z,25.13
2022-12-11T03:27:48.664Z,23.83
2022-12-11T03:30:17.348Z,23.03
2022-12-11T03:32:52.846Z,22.23
2022-12-11T03:35:28.449Z,23.33
2022-12-11T03:37:58.514Z,24.00
2022-12-11T03:40:25.811Z,24.43
2022-12-11T03:42:54.189Z,22.87
2022-12-11T03:45:22.026Z,23.50
2022-12-11T03:47:49.486Z,25.23
2022-12-11T03:50:18.050Z,24.70
2022-12-11T03:52:46.478Z,25.33
2022-12-11T03:55:15.004Z,27.67
2022-12-11T03:57:42.002Z,26.50
2022-12-11T04:00:10.466Z,27.58
2022-12-11T04:02:37.479Z,24.73
2022-12-11T04:05:04.679Z,27.63
2022-12-11T04:07:31.766Z,27.00
2022-12-11T04:09:58.799Z,27.13
2022-12-11T04:12:25.781Z,26.73
2022-12-11T04:15:01.765Z,25.37
2022-12-11T04:17:51.936Z,27.03
2022-12-11T04:20:38.094Z,28.20
2022-12-11T04:23:30.509Z,24.03
2022-12-11T04:26:11.575Z,24.00
2022-12-11T04:28:38.727Z,26.73
2022-12-11T04:31:05.929Z,25.17
2022-12-11T04:33:33.070Z,24.43
2022-12-11T04:36:00.943Z,24.17
2022-12-11T04:38:28.156Z,23.77
2022-12-11T04:40:59.318Z,27.00
2022-12-11T04:43:27.705Z,25.13
2022-12-11T04:46:11.756Z,21.50
2022-12-11T04:48:39.379Z,20.97
2022-12-11T04:51:07.156Z,20.83
2022-12-11T04:53:34.617Z,21.77
2022-12-11T04:56:01.636Z,18.27
2022-12-11T04:58:28.795Z,19.03
2022-12-11T05:00:55.758Z,21.03
2022-12-11T05:03:22.762Z,20.50
2022-12-11T05:05:53.938Z,21.40
2022-12-11T05:08:21.814Z,19.93
2022-12-11T05:10:59.276Z,21.40
2022-12-11T05:13:27.310Z,22.47
2022-12-11T05:15:54.378Z,19.67
2022-12-11T05:18:21.809Z,23.50
2022-12-11T05:21:02.878Z,20.48
2022-12-11T05:23:30.317Z,17.77
2022-12-11T05:25:58.681Z,18.77
2022-12-11T05:28:26.404Z,20.33
2022-12-11T05:31:03.871Z,21.57
2022-12-11T05:33:31.023Z,24.30
2022-12-11T05:35:58.198Z,21.53
2022-12-11T05:38:25.344Z,23.30
2022-12-11T05:41:06.136Z,24.10
2022-12-11T05:43:34.017Z,22.13
2022-12-11T05:46:11.269Z,22.83
2022-12-11T05:48:38.466Z,25.60
2022-12-11T05:51:05.924Z,21.03
2022-12-11T05:53:33.016Z,25.43
2022-12-11T05:56:11.254Z,25.37
2022-12-11T05:58:38.259Z,23.13
2022-12-11T06:01:13.325Z,22.70
2022-12-11T06:03:40.318Z,23.13
2022-12-11T06:06:07.745Z,21.17
2022-12-11T06:08:35.045Z,24.00
2022-12-11T06:11:02.413Z,22.03
2022-12-11T06:13:29.833Z,22.40
2022-12-11T06:16:00.267Z,21.80
2022-12-11T06:18:27.613Z,25.00
2022-12-11T06:20:54.829Z,25.60
2022-12-11T06:23:21.806Z,25.50
2022-12-11T06:25:48.772Z,27.67
2022-12-11T06:28:15.787Z,27.47
2022-12-11T06:30:42.737Z,30.53
2022-12-11T06:33:09.722Z,26.00
2022-12-11T06:35:42.083Z,25.23
2022-12-11T06:38:10.649Z,26.43
2022-12-11T06:40:38.178Z,31.58
2022-12-11T06:43:05.306Z,31.20
2022-12-11T06:45:32.306Z,30.03
2022-12-11T06:47:59.432Z,31.13
2022-12-11T06:50:26.559Z,33.33
2022-12-11T06:52:53.548Z,32.70
2022-12-11T06:55:20.529Z,30.70
2022-12-11T06:57:47.527Z,30.73
2022-12-11T07:00:14.949Z,28.77
2022-12-11T07:02:41.993Z,34.57
2022-12-11T07:05:09.502Z,35.00
2022-12-11T07:07:36.742Z,30.27
2022-12-11T07:10:10.830Z,29.43
2022-12-11T07:12:38.071Z,28.10
2022-12-11T07:15:05.579Z,26.43
2022-12-11T07:17:32.629Z,29.37
2022-12-11T07:19:59.624Z,29.50
2022-12-11T07:22:26.667Z,27.77
2022-12-11T07:24:53.637Z,26.57
2022-12-11T07:27:20.702Z,27.30
2022-12-11T07:29:47.672Z,28.83
2022-12-11T07:32:14.735Z,25.77
2022-12-11T07:34:41.910Z,25.60
2022-12-11T07:37:08.914Z,25.67
2022-12-11T07:39:35.972Z,26.53
2022-12-11T07:42:02.952Z,25.17
2022-12-11T07:44:29.937Z,24.40
2022-12-11T07:46:56.947Z,23.03
2022-12-11T07:49:23.926Z,25.90
2022-12-11T07:51:51.130Z,27.17
2022-12-11T07:54:18.202Z,21.97
2022-12-11T07:56:51.140Z,24.37
2022-12-11T07:59:21.290Z,24.25
2022-12-11T08:01:48.561Z,25.00
2022-12-11T08:04:15.804Z,21.57
2022-12-11T08:06:43.430Z,26.40
2022-12-11T08:09:15.967Z,25.30
2022-12-11T08:11:46.023Z,22.83
2022-12-11T08:14:13.537Z,24.63
2022-12-11T08:16:42.922Z,25.43
2022-12-11T08:19:10.749Z,23.73
2022-12-11T08:21:37.747Z,27.43
2022-12-11T08:24:04.830Z,28.10
2022-12-11T08:26:31.909Z,27.30
2022-12-11T08:28:59.055Z,29.40
2022-12-11T08:31:26.383Z,23.00
2022-12-11T08:33:53.755Z,22.80
2022-12-11T08:36:21.541Z,26.03
2022-12-11T08:38:48.707Z,23.97
2022-12-11T08:41:26.765Z,23.77
2022-12-11T08:43:54.982Z,25.27
2022-12-11T08:46:23.811Z,25.57
2022-12-11T08:48:51.095Z,23.53
2022-12-11T08:51:20.674Z,27.20
2022-12-11T08:53:47.750Z,22.63
2022-12-11T08:56:15.898Z,25.30
2022-12-11T08:58:43.180Z,24.87
2022-12-11T09:01:21.674Z,28.37
2022-12-11T09:03:49.342Z,26.93
2022-12-11T09:06:18.336Z,25.17
2022-12-11T09:08:51.871Z,25.40
2022-12-11T09:11:20.992Z,21.07
2022-12-11T09:13:48.099Z,21.63
2022-12-11T09:16:17.101Z,21.77
2022-12-11T09:18:46.065Z,21.50
2022-12-11T09:21:14.352Z,20.70
2022-12-11T09:23:41.451Z,21.47
2022-12-11T09:26:11.021Z,21.37
2022-12-11T09:28:42.854Z,21.53
2022-12-11T09:31:15.053Z,21.40
2022-12-11T09:33:43.213Z,22.77
2022-12-11T09:36:10.617Z,23.10
2022-12-11T09:38:37.665Z,24.33
2022-12-11T09:41:31.079Z,21.33
2022-12-11T09:44:10.285Z,23.20
2022-12-11T09:46:38.343Z,21.00
2022-12-11T09:49:06.119Z,22.60
2022-12-11T09:52:02.606Z,19.73
2022-12-11T09:54:29.714Z,21.67
2022-12-11T09:57:07.390Z,21.87
2022-12-11T09:59:46.632Z,22.33
2022-12-11T10:02:23.412Z,19.37
2022-12-11T10:04:57.309Z,20.43
2022-12-11T10:07:47.617Z,36.77
2022-12-11T10:10:14.719Z,32.03
2022-12-11T10:12:41.771Z,23.07
2022-12-11T10:15:15.339Z,24.03
2022-12-11T10:17:44.654Z,21.80
2022-12-11T10:20:31.355Z,21.17
2022-12-11T10:22:59.128Z,20.77
2022-12-11T10:25:28.942Z,19.30
2022-12-11T10:27:56.419Z,80.20
2022-12-11T10:30:32.945Z,24.27
2022-12-11T10:33:01.461Z,19.60
2022-12-11T10:35:37.302Z,21.43
2022-12-11T10:38:13.488Z,20.58
2022-12-11T10:40:42.184Z,18.93
2022-12-11T10:43:09.420Z,20.93
2022-12-11T10:45:37.469Z,21.40
2022-12-11T10:48:05.458Z,19.07
2022-12-11T10:50:32.485Z,19.10
2022-12-11T10:52:59.660Z,25.90
2022-12-11T10:55:29.145Z,21.67
2022-12-11T10:58:01.207Z,20.80
2022-12-11T11:00:36.981Z,19.70
2022-12-11T11:03:05.531Z,21.23
2022-12-11T11:05:34.620Z,21.00
2022-12-11T11:08:15.570Z,24.33
2022-12-11T11:11:02.999Z,21.03
2022-12-11T11:13:31.031Z,21.95
2022-12-11T11:16:02.350Z,21.50
2022-12-11T11:18:30.355Z,21.03
2022-12-11T11:20:57.395Z,20.80
2022-12-11T11:23:25.223Z,23.30
2022-12-11T11:25:54.871Z,20.00
2022-12-11T11:28:24.544Z,21.17
2022-12-11T11:31:12.190Z,24.07
2022-12-11T11:33:46.103Z,22.70
2022-12-11T11:36:27.111Z,23.70
2022-12-11T11:39:00.776Z,23.30
2022-12-11T11:41:29.880Z,24.83
2022-12-11T11:43:58.232Z,22.47
2022-12-11T11:46:28.415Z,25.10
2022-12-11T11:49:04.239Z,24.50
2022-12-11T11:51:35.010Z,18.67
2022-12-11T11:54:03.769Z,23.60
2022-12-11T11:56:36.527Z,19.50
2022-12-11T11:59:19.121Z,25.07
2022-12-11T12:01:46.168Z,21.37
2022-12-11T12:04:13.670Z,20.83
2022-12-11T12:06:50.555Z,21.17
2022-12-11T12:09:21.104Z,20.40
2022-12-11T12:12:04.097Z,20.70
2022-12-11T12:14:51.964Z,19.50
2022-12-11T12:17:22.437Z,19.63
2022-12-11T12:20:09.237Z,20.73
2022-12-11T12:22:49.080Z,18.50
2022-12-11T12:25:16.069Z,19.73
2022-12-11T12:28:09.261Z,23.10
2022-12-11T12:30:46.375Z,20.43
2022-12-11T12:33:42.815Z,20.53
2022-12-11T12:36:18.833Z,22.23
2022-12-11T12:38:55.100Z,21.87
2022-12-11T12:41:31.207Z,65.43
2022-12-11T12:44:01.247Z,38.40
2022-12-11T12:46:40.173Z,26.60
2022-12-11T12:49:12.193Z,18.80
2022-12-11T12:51:40.009Z,30.90
2022-12-11T12:54:12.303Z,25.30
2022-12-11T12:56:40.644Z,26.00
2022-12-11T12:59:19.421Z,21.93
2022-12-11T13:01:52.286Z,22.00
2022-12-11T13:07:28.418Z,24.13
2022-12-11T13:10:03.348Z,27.73
2022-12-11T13:12:32.592Z,25.97
2022-12-11T13:15:00.282Z,22.30
2022-12-11T13:17:35.820Z,30.33
2022-12-11T13:20:22.357Z,33.60
2022-12-11T13:22:51.165Z,26.03
2022-12-11T13:25:23.188Z,27.07
2022-12-11T13:27:50.296Z,28.90
2022-12-11T13:30:21.373Z,26.03
2022-12-11T13:33:08.100Z,31.27
2022-12-11T13:35:36.052Z,30.10
2022-12-11T13:38:23.398Z,31.50
2022-12-11T13:40:53.557Z,29.00
2022-12-11T13:43:25.390Z,29.57
2022-12-11T13:45:54.209Z,30.73
2022-12-11T13:48:40.214Z,34.23
2022-12-11T13:51:07.678Z,31.52
2022-12-11T13:53:34.675Z,32.53
2022-12-11T13:56:03.291Z,35.83
2022-12-11T13:58:31.146Z,54.23
2022-12-11T14:01:12.737Z,36.47
2022-12-11T14:03:41.165Z,31.97
2022-12-11T14:06:18.052Z,35.67
2022-12-11T14:08:46.241Z,30.83
2022-12-11T14:11:24.797Z,29.53
2022-12-11T14:13:51.846Z,34.13
2022-12-11T14:16:21.070Z,31.93
2022-12-11T14:18:49.366Z,32.27
2022-12-11T14:21:20.923Z,33.93
2022-12-11T14:23:58.662Z,32.27
2022-12-11T14:26:25.672Z,41.53
2022-12-11T14:28:53.246Z,31.37
2022-12-11T14:31:28.833Z,29.50
2022-12-11T14:34:00.221Z,32.23
2022-12-11T14:36:27.534Z,33.87
2022-12-11T14:38:59.066Z,30.53
2022-12-11T14:41:30.516Z,32.07
2022-12-11T14:44:02.833Z,31.73
2022-12-11T14:46:35.631Z,34.30
2022-12-11T14:49:04.244Z,31.73
2022-12-11T14:51:33.885Z,35.67
2022-12-11T14:54:01.310Z,31.23
2022-12-11T14:56:30.014Z,30.23
2022-12-11T14:58:58.948Z,33.97
2022-12-11T15:01:33.340Z,37.27
2022-12-11T15:04:06.246Z,34.83
2022-12-11T15:06:35.213Z,31.50
2022-12-11T15:09:18.129Z,31.67
2022-12-11T15:11:45.501Z,33.70
2022-12-11T15:14:13.077Z,29.90
2022-12-11T15:16:41.821Z,31.13
2022-12-11T15:19:18.113Z,28.97
2022-12-11T15:21:45.175Z,32.00
2022-12-11T15:24:23.351Z,32.77
2022-12-11T15:26:50.403Z,32.30
2022-12-11T15:29:34.934Z,33.97
2022-12-11T15:32:03.634Z,41.33
2022-12-11T15:34:50.925Z,31.53
2022-12-11T15:37:28.433Z,31.87
2022-12-11T15:39:56.170Z,32.23
2022-12-11T15:42:32.513Z,33.73
2022-12-11T15:44:59.924Z,37.37
2022-12-11T15:47:28.305Z,36.00
2022-12-11T15:49:59.854Z,33.17
2022-12-11T15:52:26.931Z,35.00
2022-12-11T15:54:53.962Z,37.80
2022-12-11T15:57:22.053Z,39.57
2022-12-11T15:59:50.661Z,42.13
2022-12-11T16:02:18.079Z,38.93
2022-12-11T16:04:45.100Z,38.40
2022-12-11T16:07:22.543Z,38.90
2022-12-11T16:09:49.889Z,38.77
2022-12-11T16:12:17.055Z,37.70
2022-12-11T16:14:44.809Z,39.00
2022-12-11T16:17:13.078Z,40.33
2022-12-11T16:19:40.795Z,39.60
2022-12-11T16:22:11.119Z,38.00
2022-12-11T16:24:38.289Z,40.63
2022-12-11T16:27:06.037Z,43.88
2022-12-11T16:29:36.465Z,39.37
2022-12-11T16:32:03.937Z,40.10
2022-12-11T16:34:30.967Z,38.93
2022-12-11T16:36:58.723Z,51.03
2022-12-11T16:39:25.869Z,48.07
2022-12-11T16:41:53.119Z,44.10
2022-12-11T16:44:21.035Z,42.80
2022-12-11T16:46:49.331Z,44.57
2022-12-11T16:49:16.406Z,44.50
2022-12-11T16:51:43.545Z,47.90
2022-12-11T16:54:11.343Z,44.80
2022-12-11T16:56:38.516Z,43.83
2022-12-11T16:59:05.989Z,42.87
2022-12-11T17:01:33.144Z,44.63
2022-12-11T17:04:00.407Z,47.17
2022-12-11T17:06:27.440Z,49.45
2022-12-11T17:08:54.506Z,45.23
2022-12-11T17:11:22.741Z,50.27
2022-12-11T17:13:54.172Z,46.03
2022-12-11T17:16:22.274Z,43.83
2022-12-11T17:18:49.353Z,45.80
2022-12-11T17:21:17.790Z,41.03
2022-12-11T17:23:44.998Z,44.10
2022-12-11T17:26:14.503Z,49.90
2022-12-11T17:28:41.542Z,45.53
2022-12-11T17:31:09.863Z,46.93
2022-12-11T17:33:37.031Z,49.03
2022-12-11T17:36:04.941Z,50.77
2022-12-11T17:38:31.973Z,46.33
2022-12-11T17:40:58.975Z,44.20
2022-12-11T17:43:26.189Z,47.90
2022-12-11T17:45:55.061Z,45.17
2022-12-11T17:48:22.676Z,45.25
2022-12-11T17:50:50.439Z,46.43
2022-12-11T17:53:18.493Z,40.10
2022-12-11T17:55:46.188Z,40.90
2022-12-11T17:58:17.257Z,41.27
2022-12-11T18:00:45.360Z,39.70
2022-12-11T18:03:12.723Z,48.17
2022-12-11T18:05:44.185Z,48.00
2022-12-11T18:08:15.078Z,39.80
2022-12-11T18:10:42.641Z,36.03
2022-12-11T18:13:09.699Z,34.40
2022-12-11T18:15:36.946Z,37.67
2022-12-11T18:18:04.398Z,37.30
2022-12-11T18:20:31.723Z,40.90
2022-12-11T18:22:58.779Z,44.03
2022-12-11T18:25:26.191Z,40.93
2022-12-11T18:27:55.082Z,42.25
2022-12-11T18:30:22.739Z,39.80
2022-12-11T18:32:50.655Z,45.37
2022-12-11T18:35:18.092Z,40.27
2022-12-11T18:37:45.134Z,39.93
2022-12-11T18:40:12.547Z,40.63
2022-12-11T18:42:39.557Z,40.60
2022-12-11T18:45:06.973Z,44.23
2022-12-11T18:47:34.090Z,41.37
2022-12-11T18:50:07.190Z,48.53
2022-12-11T18:52:35.011Z,44.03
2022-12-11T18:55:02.076Z,46.17
2022-12-11T18:57:29.108Z,46.00
2022-12-11T18:59:56.236Z,44.80
2022-12-11T19:02:23.597Z,43.63
2022-12-11T19:04:50.662Z,42.17
2022-12-11T19:07:17.743Z,49.23
2022-12-11T19:09:48.033Z,49.60
2022-12-11T19:12:15.329Z,54.67
2022-12-11T19:14:42.417Z,56.92
2022-12-11T19:17:09.497Z,56.43
2022-12-11T19:19:36.527Z,56.60
2022-12-11T19:22:04.043Z,53.47
2022-12-11T19:24:31.410Z,58.33
2022-12-11T19:26:58.484Z,55.73
2022-12-11T19:29:29.582Z,50.87
2022-12-11T19:31:56.882Z,48.37
2022-12-11T19:34:23.994Z,53.93
2022-12-11T19:36:51.217Z,51.90
2022-12-11T19:39:19.637Z,55.20
2022-12-11T19:41:46.956Z,54.13
2022-12-11T19:44:14.022Z,52.72
2022-12-11T19:46:41.389Z,47.40
2022-12-11T19:49:08.505Z,52.20
2022-12-11T19:51:38.436Z,52.93
2022-12-11T19:54:07.350Z,53.47
2022-12-11T19:56:35.053Z,57.53
2022-12-11T19:59:02.817Z,56.10
2022-12-11T20:01:31.225Z,52.90
2022-12-11T20:04:00.157Z,48.97
2022-12-11T20:06:30.651Z,50.60
2022-12-11T20:08:57.843Z,51.95
2022-12-11T20:11:25.222Z,51.97
2022-12-11T20:13:55.286Z,47.40
2022-12-11T20:16:39.559Z,47.03
2022-12-11T20:19:09.506Z,47.17
2022-12-11T20:21:36.525Z,44.03
2022-12-11T20:24:03.603Z,51.35
2022-12-11T20:26:32.418Z,46.88
2022-12-11T20:28:59.561Z,43.97
2022-12-11T20:31:27.047Z,42.77
2022-12-11T20:33:56.210Z,45.97
2022-12-11T20:36:24.052Z,42.93
2022-12-11T20:38:51.158Z,45.97
2022-12-11T20:41:22.826Z,44.60
2022-12-11T20:43:50.168Z,54.23
2022-12-11T20:46:18.424Z,46.30
2022-12-11T20:48:45.603Z,46.43
2022-12-11T20:51:13.630Z,42.97
2022-12-11T20:53:41.253Z,47.13
2022-12-11T20:56:12.122Z,44.33
2022-12-11T20:58:39.206Z,44.03
2022-12-11T21:01:06.672Z,43.40
2022-12-11T21:03:40.416Z,43.00
2022-12-11T21:06:09.306Z,43.13
2022-12-11T21:08:36.303Z,41.33
2022-12-11T21:11:06.090Z,45.67
2022-12-11T21:13:33.882Z,42.50
2022-12-11T21:16:04.303Z,42.88
2022-12-11T21:18:31.382Z,43.17
2022-12-11T21:20:58.966Z,42.60
2022-12-11T21:23:26.149Z,40.67
2022-12-11T21:25:53.615Z,38.40
2022-12-11T21:28:22.638Z,44.43
2022-12-11T21:30:49.688Z,42.27
2022-12-11T21:33:16.918Z,39.67
2022-12-11T21:35:44.081Z,42.30
2022-12-11T21:38:11.116Z,42.30
2022-12-11T21:40:38.152Z,44.63
2022-12-11T21:43:05.212Z,45.30
2022-12-11T21:46:04.942Z,43.97
2022-12-11T21:48:22.678Z,42.43
2022-12-11T21:50:51.073Z,38.00
2022-12-11T21:53:18.503Z,40.73
2022-12-11T21:55:45.502Z,38.23
2022-12-11T21:58:12.494Z,42.03
2022-12-11T22:00:39.752Z,39.93
2022-12-11T22:03:06.805Z,43.53
2022-12-11T22:05:33.891Z,46.13
2022-12-11T22:08:00.952Z,41.97
2022-12-11T22:10:29.099Z,43.20
2022-12-11T22:12:56.257Z,39.73
2022-12-11T22:15:26.138Z,41.10
2022-12-11T22:17:53.143Z,38.67
2022-12-11T22:20:20.216Z,43.27
2022-12-11T22:22:47.291Z,41.10
2022-12-11T22:25:14.620Z,41.13
2022-12-11T22:27:41.775Z,40.77
2022-12-11T22:30:09.065Z,42.77
2022-12-11T22:32:36.090Z,42.67
2022-12-11T22:35:03.649Z,46.07
2022-12-11T22:37:30.687Z,42.70
2022-12-11T22:39:57.773Z,41.87
2022-12-11T22:42:24.827Z,40.77
2022-12-11T22:44:51.882Z,42.97
2022-12-11T22:47:19.043Z,41.70
2022-12-11T22:49:46.149Z,40.73
2022-12-11T22:52:13.174Z,41.67
2022-12-11T22:54:40.645Z,39.70
2022-12-11T22:57:07.834Z,38.63
2022-12-11T22:59:34.826Z,40.30
2022-12-11T23:02:01.876Z,40.72
2022-12-11T23:04:28.971Z,39.13
2022-12-11T23:06:55.973Z,38.33
2022-12-11T23:09:23.978Z,37.80
2022-12-11T23:11:51.277Z,42.13
2022-12-11T23:14:18.723Z,39.00
2022-12-11T23:16:45.982Z,37.83
2022-12-11T23:19:13.223Z,35.00
2022-12-11T23:21:40.243Z,37.00
2022-12-11T23:24:07.582Z,36.43
2022-12-11T23:26:34.649Z,35.90
2022-12-11T23:29:01.902Z,32.57
2022-12-11T23:31:30.100Z,36.83
2022-12-11T23:33:57.207Z,35.87
2022-12-11T23:36:25.265Z,33.57
2022-12-11T23:38:55.051Z,34.93
2022-12-11T23:41:22.405Z,35.47
2022-12-11T23:43:49.411Z,33.20
2022-12-11T23:46:21.346Z,33.40
2022-12-11T23:48:48.917Z,34.37
2022-12-11T23:51:17.080Z,33.33
2022-12-11T23:53:44.135Z,36.27
2022-12-11T23:56:12.953Z,30.90
2022-12-11T23:58:40.827Z,32.03
